MDT,Max TemperatureF,Mean TemperatureF,Min TemperatureF,Max Dew PointF,MeanDew PointF,Min DewpointF,Max Humidity, Mean Humidity, Min Humidity, Max Sea Level PressureIn, Mean Sea Level PressureIn, Min Sea Level PressureIn, Max VisibilityMiles, Mean VisibilityMiles, Min VisibilityMiles, Max Wind SpeedMPH, Mean Wind SpeedMPH, Max Gust SpeedMPH,PrecipitationIn, CloudCover, Events, WindDirDegrees
2013-6-1,76,60,44,25,22,19,40,26,12,30.12,30.02,29.90,10,10,10,17,4,22,0.00,0,,18
2013-6-2,88,68,48,32,25,18,50,29,7,29.95,29.79,29.61,10,10,10,16,7,17,0.00,0,,123
2013-6-3,91,74,56,33,26,19,33,21,8,29.81,29.65,29.59,10,9,4,29,10,37,0.00,1,,72
2013-6-4,90,70,49,32,26,23,32,21,9,29.97,29.77,29.66,10,10,6,44,7,59,T,0,,336
2013-6-5,85,69,53,35,27,21,35,23,10,29.87,29.81,29.76,10,10,10,23,7,28,0.00,0,,311
2013-6-6,88,70,52,33,29,24,41,26,11,29.90,29.82,29.74,10,10,10,15,7,20,0.00,0,,189
2013-6-7,90,74,57,37,31,27,40,25,10,29.90,29.76,29.65,10,10,10,21,6,38,0.00,0,,226
2013-6-8,93,75,57,38,32,22,47,28,8,29.75,29.68,29.62,10,10,10,23,7,26,0.00,0,,304
2013-6-9,94,76,57,35,29,25,34,21,8,29.88,29.79,29.69,10,10,10,14,7,17,0.00,0,,78
2013-6-10,98,80,62,37,28,17,29,18,7,29.78,29.68,29.58,10,10,10,21,9,26,0.00,1,,153
2013-6-11,92,79,65,23,20,17,16,12,7,29.81,29.73,29.65,10,10,10,28,11,40,0.00,0,,169
2013-6-12,93,75,57,32,23,16,30,18,6,29.89,29.83,29.78,10,10,10,21,10,24,0.00,0,,148
2013-6-13,95,82,68,30,27,21,20,15,9,29.91,29.73,29.61,10,10,10,29,14,37,0.00,1,,146
2013-6-14,91,73,55,35,19,5,40,22,4,29.83,29.75,29.69,10,10,10,26,8,32,0.00,0,,351
2013-6-15,89,73,56,34,22,7,23,16,8,29.87,29.81,29.75,10,10,10,26,8,33,0.00,0,,159
2013-6-16,90,76,62,46,38,32,45,30,14,30.13,29.87,29.77,10,10,10,26,11,32,0.01,1,Rain-Thunderstorm,112
2013-6-17,91,75,59,41,32,21,46,28,9,30.04,29.82,29.72,10,10,9,46,10,55,T,1,Rain,118
2013-6-18,94,78,61,35,23,7,31,19,6,29.81,29.69,29.57,10,10,10,23,11,33,0.00,0,,140
2013-6-19,93,77,60,19,11,6,14,9,4,29.72,29.57,29.49,10,10,10,30,15,38,0.00,0,,157
2013-6-20,91,71,50,26,15,7,25,15,5,29.74,29.66,29.60,10,10,10,25,8,29,0.00,0,,277
2013-6-21,92,73,54,35,16,10,21,13,5,29.77,29.68,29.60,10,10,10,17,8,25,0.00,0,,116
2013-6-22,90,75,59,24,19,14,21,14,7,29.86,29.68,29.63,10,10,10,25,10,35,0.00,0,,279
2013-6-23,92,73,53,24,21,13,24,16,8,29.78,29.68,29.56,10,10,10,16,7,22,0.00,0,,99
2013-6-24,88,77,65,29,20,13,19,14,8,29.84,29.63,29.56,10,10,10,31,13,44,0.00,0,,170
2013-6-25,90,75,59,35,30,25,30,22,13,29.83,29.78,29.66,10,10,10,22,6,26,0.00,0,,315
2013-6-26,96,78,59,37,32,26,36,23,10,29.94,29.87,29.81,10,10,10,17,8,20,0.00,0,,32
2013-6-27,101,82,63,39,33,28,30,19,8,30.02,29.93,29.86,10,10,10,17,7,21,0.00,0,,186
2013-6-28,103,84,65,39,34,25,32,19,6,30.00,29.91,29.82,10,10,10,31,10,38,0.00,1,,143
2013-6-29,101,86,71,42,38,32,31,21,10,30.01,29.85,29.75,10,10,10,37,11,54,T,1,Rain,74
2013-6-30,98,81,64,46,40,30,43,27,10,30.05,29.85,29.73,10,10,10,28,8,35,T,0,Rain-Thunderstorm,95